sensor_id;sensor_type;location;lat;lon;timestamp;P1;durP1;ratioP1;P2;durP2;ratioP2
67776;SDS011;54576;52.020;5.536;2022-10-26T00:01:03;11.07;;;5.80;;
67776;SDS011;54576;52.020;5.536;2022-10-26T00:03:33;11.35;;;5.63;;
67776;SDS011;54576;52.020;5.536;2022-10-26T00:06:03;12.25;;;4.45;;
67776;SDS011;54576;52.020;5.536;2022-10-26T00:08:37;7.80;;;5.05;;
67776;SDS011;54576;52.020;5.536;2022-10-26T00:11:03;17.08;;;5.53;;
67776;SDS011;54576;52.020;5.536;2022-10-26T00:13:29;9.70;;;5.03;;
67776;SDS011;54576;52.020;5.536;2022-10-26T00:15:54;10.40;;;4.78;;
67776;SDS011;54576;52.020;5.536;2022-10-26T00:18:20;14.30;;;5.00;;
67776;SDS011;54576;52.020;5.536;2022-10-26T00:20:46;9.65;;;4.38;;
67776;SDS011;54576;52.020;5.536;2022-10-26T00:23:11;12.48;;;4.95;;
67776;SDS011;54576;52.020;5.536;2022-10-26T00:25:37;8.73;;;4.78;;
67776;SDS011;54576;52.020;5.536;2022-10-26T00:28:03;12.05;;;5.53;;
67776;SDS011;54576;52.020;5.536;2022-10-26T00:30:28;8.35;;;5.07;;
67776;SDS011;54576;52.020;5.536;2022-10-26T00:32:54;7.63;;;4.00;;
67776;SDS011;54576;52.020;5.536;2022-10-26T00:35:19;13.05;;;5.07;;
67776;SDS011;54576;52.020;5.536;2022-10-26T00:37:45;11.90;;;4.32;;
67776;SDS011;54576;52.020;5.536;2022-10-26T00:40:11;13.55;;;5.60;;
67776;SDS011;54576;52.020;5.536;2022-10-26T00:42:36;13.68;;;5.03;;
67776;SDS011;54576;52.020;5.536;2022-10-26T00:45:18;8.40;;;4.32;;
67776;SDS011;54576;52.020;5.536;2022-10-26T00:47:48;13.65;;;6.40;;
67776;SDS011;54576;52.020;5.536;2022-10-26T00:50:21;10.95;;;5.07;;
67776;SDS011;54576;52.020;5.536;2022-10-26T00:52:51;11.02;;;5.40;;
67776;SDS011;54576;52.020;5.536;2022-10-26T00:55:19;9.40;;;4.32;;
67776;SDS011;54576;52.020;5.536;2022-10-26T00:57:48;16.30;;;5.03;;
67776;SDS011;54576;52.020;5.536;2022-10-26T01:00:15;10.73;;;5.28;;
67776;SDS011;54576;52.020;5.536;2022-10-26T01:02:41;11.10;;;5.70;;
67776;SDS011;54576;52.020;5.536;2022-10-26T01:05:08;23.00;;;5.60;;
67776;SDS011;54576;52.020;5.536;2022-10-26T01:07:35;13.90;;;6.18;;
67776;SDS011;54576;52.020;5.536;2022-10-26T01:10:01;17.10;;;5.47;;
67776;SDS011;54576;52.020;5.536;2022-10-26T01:12:27;16.67;;;6.57;;
67776;SDS011;54576;52.020;5.536;2022-10-26T01:14:52;16.10;;;5.30;;
67776;SDS011;54576;52.020;5.536;2022-10-26T01:17:31;13.13;;;5.20;;
67776;SDS011;54576;52.020;5.536;2022-10-26T01:22:34;16.50;;;5.32;;
67776;SDS011;54576;52.020;5.536;2022-10-26T01:28:11;6.68;;;4.95;;
67776;SDS011;54576;52.020;5.536;2022-10-26T01:30:57;15.50;;;5.35;;
67776;SDS011;54576;52.020;5.536;2022-10-26T01:36:26;7.95;;;4.97;;
67776;SDS011;54576;52.020;5.536;2022-10-26T01:39:01;15.82;;;5.40;;
67776;SDS011;54576;52.020;5.536;2022-10-26T01:41:48;9.10;;;5.40;;
67776;SDS011;54576;52.020;5.536;2022-10-26T01:44:25;15.05;;;5.90;;
67776;SDS011;54576;52.020;5.536;2022-10-26T01:46:56;9.02;;;5.20;;
67776;SDS011;54576;52.020;5.536;2022-10-26T01:49:27;13.23;;;5.53;;
67776;SDS011;54576;52.020;5.536;2022-10-26T01:51:55;14.48;;;5.05;;
67776;SDS011;54576;52.020;5.536;2022-10-26T01:54:21;10.30;;;5.45;;
67776;SDS011;54576;52.020;5.536;2022-10-26T01:56:47;18.02;;;5.82;;
67776;SDS011;54576;52.020;5.536;2022-10-26T02:07:10;13.07;;;6.18;;
67776;SDS011;54576;52.020;5.536;2022-10-26T02:10:16;12.68;;;5.80;;
67776;SDS011;54576;52.020;5.536;2022-10-26T02:13:01;12.50;;;5.55;;
67776;SDS011;54576;52.020;5.536;2022-10-26T02:18:26;22.95;;;5.18;;
67776;SDS011;54576;52.020;5.536;2022-10-26T02:21:03;15.60;;;5.50;;
67776;SDS011;54576;52.020;5.536;2022-10-26T02:23:31;23.50;;;6.30;;
67776;SDS011;54576;52.020;5.536;2022-10-26T02:25:59;18.00;;;5.55;;
67776;SDS011;54576;52.020;5.536;2022-10-26T02:28:31;13.95;;;6.35;;
67776;SDS011;54576;52.020;5.536;2022-10-26T02:31:00;9.20;;;5.22;;
67776;SDS011;54576;52.020;5.536;2022-10-26T02:33:29;8.57;;;5.47;;
67776;SDS011;54576;52.020;5.536;2022-10-26T02:35:59;10.23;;;5.60;;
67776;SDS011;54576;52.020;5.536;2022-10-26T02:40:54;10.38;;;5.03;;
67776;SDS011;54576;52.020;5.536;2022-10-26T02:43:20;13.65;;;5.30;;
67776;SDS011;54576;52.020;5.536;2022-10-26T02:46:03;13.85;;;5.35;;
67776;SDS011;54576;52.020;5.536;2022-10-26T02:48:40;12.98;;;5.78;;
67776;SDS011;54576;52.020;5.536;2022-10-26T02:51:08;8.65;;;5.80;;
67776;SDS011;54576;52.020;5.536;2022-10-26T02:56:35;28.15;;;6.13;;
67776;SDS011;54576;52.020;5.536;2022-10-26T02:59:11;15.07;;;5.55;;
67776;SDS011;54576;52.020;5.536;2022-10-26T03:04:06;14.52;;;5.22;;
67776;SDS011;54576;52.020;5.536;2022-10-26T03:06:32;13.63;;;5.75;;
67776;SDS011;54576;52.020;5.536;2022-10-26T03:08:57;7.72;;;4.97;;
67776;SDS011;54576;52.020;5.536;2022-10-26T03:11:23;12.48;;;5.25;;
67776;SDS011;54576;52.020;5.536;2022-10-26T03:13:48;14.60;;;5.15;;
67776;SDS011;54576;52.020;5.536;2022-10-26T03:16:14;14.50;;;5.07;;
67776;SDS011;54576;52.020;5.536;2022-10-26T03:18:39;11.90;;;5.30;;
67776;SDS011;54576;52.020;5.536;2022-10-26T03:21:05;14.30;;;5.32;;
67776;SDS011;54576;52.020;5.536;2022-10-26T03:23:31;17.98;;;5.93;;
67776;SDS011;54576;52.020;5.536;2022-10-26T03:25:57;21.65;;;6.53;;
67776;SDS011;54576;52.020;5.536;2022-10-26T03:28:23;12.73;;;5.28;;
67776;SDS011;54576;52.020;5.536;2022-10-26T03:30:49;10.07;;;5.45;;
67776;SDS011;54576;52.020;5.536;2022-10-26T03:33:15;9.43;;;5.20;;
67776;SDS011;54576;52.020;5.536;2022-10-26T03:35:40;18.85;;;5.28;;
67776;SDS011;54576;52.020;5.536;2022-10-26T03:38:06;12.35;;;5.30;;
67776;SDS011;54576;52.020;5.536;2022-10-26T03:40:31;16.77;;;5.40;;
67776;SDS011;54576;52.020;5.536;2022-10-26T03:42:57;14.70;;;5.03;;
67776;SDS011;54576;52.020;5.536;2022-10-26T03:45:23;10.35;;;4.97;;
67776;SDS011;54576;52.020;5.536;2022-10-26T03:47:48;17.15;;;5.50;;
67776;SDS011;54576;52.020;5.536;2022-10-26T03:50:15;14.43;;;5.20;;
67776;SDS011;54576;52.020;5.536;2022-10-26T03:52:42;13.55;;;4.68;;
67776;SDS011;54576;52.020;5.536;2022-10-26T03:55:08;10.85;;;5.22;;
67776;SDS011;54576;52.020;5.536;2022-10-26T03:57:38;17.98;;;5.60;;
67776;SDS011;54576;52.020;5.536;2022-10-26T04:00:05;11.80;;;5.55;;
67776;SDS011;54576;52.020;5.536;2022-10-26T04:02:31;10.13;;;5.60;;
67776;SDS011;54576;52.020;5.536;2022-10-26T04:04:57;21.23;;;6.00;;
67776;SDS011;54576;52.020;5.536;2022-10-26T04:07:22;11.18;;;5.32;;
67776;SDS011;54576;52.020;5.536;2022-10-26T04:09:48;17.05;;;5.13;;
67776;SDS011;54576;52.020;5.536;2022-10-26T04:12:13;20.08;;;5.80;;
67776;SDS011;54576;52.020;5.536;2022-10-26T04:14:39;20.05;;;5.53;;
67776;SDS011;54576;52.020;5.536;2022-10-26T04:17:05;19.58;;;5.60;;
67776;SDS011;54576;52.020;5.536;2022-10-26T04:19:30;14.25;;;5.55;;
67776;SDS011;54576;52.020;5.536;2022-10-26T04:21:56;11.70;;;4.97;;
67776;SDS011;54576;52.020;5.536;2022-10-26T04:24:21;23.92;;;6.22;;
67776;SDS011;54576;52.020;5.536;2022-10-26T04:26:47;10.30;;;5.32;;
67776;SDS011;54576;52.020;5.536;2022-10-26T04:29:12;13.00;;;6.03;;
67776;SDS011;54576;52.020;5.536;2022-10-26T04:31:38;14.73;;;5.57;;
67776;SDS011;54576;52.020;5.536;2022-10-26T04:34:05;14.40;;;5.85;;
67776;SDS011;54576;52.020;5.536;2022-10-26T04:36:30;7.05;;;5.25;;
67776;SDS011;54576;52.020;5.536;2022-10-26T04:38:56;15.15;;;5.93;;
67776;SDS011;54576;52.020;5.536;2022-10-26T04:41:21;13.40;;;5.75;;
67776;SDS011;54576;52.020;5.536;2022-10-26T04:43:47;21.40;;;6.25;;
67776;SDS011;54576;52.020;5.536;2022-10-26T04:46:13;9.82;;;5.82;;
67776;SDS011;54576;52.020;5.536;2022-10-26T04:48:38;9.38;;;6.03;;
67776;SDS011;54576;52.020;5.536;2022-10-26T04:51:04;15.07;;;6.07;;
67776;SDS011;54576;52.020;5.536;2022-10-26T04:53:30;13.50;;;5.55;;
67776;SDS011;54576;52.020;5.536;2022-10-26T04:55:56;13.82;;;5.72;;
67776;SDS011;54576;52.020;5.536;2022-10-26T04:58:22;12.23;;;5.93;;
67776;SDS011;54576;52.020;5.536;2022-10-26T05:00:47;18.80;;;5.82;;
67776;SDS011;54576;52.020;5.536;2022-10-26T05:03:13;16.80;;;6.30;;
67776;SDS011;54576;52.020;5.536;2022-10-26T05:05:39;22.25;;;5.45;;
67776;SDS011;54576;52.020;5.536;2022-10-26T05:08:04;10.63;;;6.47;;
67776;SDS011;54576;52.020;5.536;2022-10-26T05:10:30;18.13;;;6.28;;
67776;SDS011;54576;52.020;5.536;2022-10-26T05:12:57;12.18;;;5.82;;
67776;SDS011;54576;52.020;5.536;2022-10-26T05:15:24;15.38;;;5.55;;
67776;SDS011;54576;52.020;5.536;2022-10-26T05:17:57;22.98;;;6.43;;
67776;SDS011;54576;52.020;5.536;2022-10-26T05:20:24;14.63;;;5.55;;
67776;SDS011;54576;52.020;5.536;2022-10-26T05:22:58;17.90;;;6.28;;
67776;SDS011;54576;52.020;5.536;2022-10-26T05:25:25;12.85;;;5.82;;
67776;SDS011;54576;52.020;5.536;2022-10-26T05:27:55;25.50;;;6.35;;
67776;SDS011;54576;52.020;5.536;2022-10-26T05:30:25;13.52;;;6.00;;
67776;SDS011;54576;52.020;5.536;2022-10-26T05:32:53;18.38;;;6.30;;
67776;SDS011;54576;52.020;5.536;2022-10-26T05:35:22;16.08;;;6.78;;
67776;SDS011;54576;52.020;5.536;2022-10-26T05:37:49;14.98;;;6.15;;
67776;SDS011;54576;52.020;5.536;2022-10-26T05:40:15;20.35;;;7.32;;
67776;SDS011;54576;52.020;5.536;2022-10-26T05:42:41;13.25;;;6.10;;
67776;SDS011;54576;52.020;5.536;2022-10-26T05:45:07;16.33;;;6.43;;
67776;SDS011;54576;52.020;5.536;2022-10-26T05:47:37;18.73;;;5.95;;
67776;SDS011;54576;52.020;5.536;2022-10-26T05:50:03;11.40;;;5.60;;
67776;SDS011;54576;52.020;5.536;2022-10-26T05:52:29;13.27;;;6.22;;
67776;SDS011;54576;52.020;5.536;2022-10-26T05:54:55;93.82;;;10.10;;
67776;SDS011;54576;52.020;5.536;2022-10-26T05:57:20;9.70;;;5.57;;
67776;SDS011;54576;52.020;5.536;2022-10-26T05:59:46;27.67;;;6.10;;
67776;SDS011;54576;52.020;5.536;2022-10-26T06:02:31;14.43;;;5.80;;
67776;SDS011;54576;52.020;5.536;2022-10-26T06:05:06;25.30;;;6.72;;
67776;SDS011;54576;52.020;5.536;2022-10-26T06:07:35;15.55;;;6.80;;
67776;SDS011;54576;52.020;5.536;2022-10-26T06:10:01;58.80;;;7.88;;
67776;SDS011;54576;52.020;5.536;2022-10-26T06:12:28;15.82;;;6.95;;
67776;SDS011;54576;52.020;5.536;2022-10-26T06:14:54;14.85;;;7.50;;
67776;SDS011;54576;52.020;5.536;2022-10-26T06:17:24;19.30;;;6.97;;
67776;SDS011;54576;52.020;5.536;2022-10-26T06:19:57;23.42;;;7.25;;
67776;SDS011;54576;52.020;5.536;2022-10-26T06:28:04;21.85;;;7.20;;
67776;SDS011;54576;52.020;5.536;2022-10-26T06:30:50;24.10;;;7.50;;
67776;SDS011;54576;52.020;5.536;2022-10-26T06:33:16;17.75;;;7.28;;
67776;SDS011;54576;52.020;5.536;2022-10-26T06:38:18;12.60;;;7.32;;
67776;SDS011;54576;52.020;5.536;2022-10-26T06:40:47;17.38;;;7.50;;
67776;SDS011;54576;52.020;5.536;2022-10-26T06:43:19;18.00;;;7.32;;
67776;SDS011;54576;52.020;5.536;2022-10-26T06:45:51;16.05;;;6.65;;
67776;SDS011;54576;52.020;5.536;2022-10-26T06:48:24;17.75;;;6.20;;
67776;SDS011;54576;52.020;5.536;2022-10-26T06:50:54;18.65;;;5.85;;
67776;SDS011;54576;52.020;5.536;2022-10-26T06:53:22;14.70;;;6.40;;
67776;SDS011;54576;52.020;5.536;2022-10-26T06:55:58;16.50;;;5.40;;
67776;SDS011;54576;52.020;5.536;2022-10-26T06:58:26;17.65;;;5.47;;
67776;SDS011;54576;52.020;5.536;2022-10-26T07:00:58;13.63;;;5.30;;
67776;SDS011;54576;52.020;5.536;2022-10-26T07:03:24;19.25;;;5.15;;
67776;SDS011;54576;52.020;5.536;2022-10-26T07:05:49;19.38;;;5.25;;
67776;SDS011;54576;52.020;5.536;2022-10-26T07:08:15;16.10;;;4.70;;
67776;SDS011;54576;52.020;5.536;2022-10-26T07:10:41;9.05;;;4.50;;
67776;SDS011;54576;52.020;5.536;2022-10-26T07:13:09;9.25;;;4.47;;
67776;SDS011;54576;52.020;5.536;2022-10-26T07:15:35;18.92;;;5.22;;
67776;SDS011;54576;52.020;5.536;2022-10-26T07:18:02;16.45;;;4.68;;
67776;SDS011;54576;52.020;5.536;2022-10-26T07:20:34;10.15;;;3.47;;
67776;SDS011;54576;52.020;5.536;2022-10-26T07:23:04;10.48;;;3.70;;
67776;SDS011;54576;52.020;5.536;2022-10-26T07:25:34;21.60;;;3.78;;
67776;SDS011;54576;52.020;5.536;2022-10-26T07:28:04;8.90;;;3.65;;
67776;SDS011;54576;52.020;5.536;2022-10-26T07:30:34;13.43;;;4.10;;
67776;SDS011;54576;52.020;5.536;2022-10-26T07:33:03;16.13;;;4.07;;
67776;SDS011;54576;52.020;5.536;2022-10-26T07:35:38;21.77;;;4.85;;
67776;SDS011;54576;52.020;5.536;2022-10-26T07:38:04;9.52;;;3.70;;
67776;SDS011;54576;52.020;5.536;2022-10-26T07:40:30;11.10;;;4.07;;
67776;SDS011;54576;52.020;5.536;2022-10-26T07:42:57;13.98;;;4.07;;
67776;SDS011;54576;52.020;5.536;2022-10-26T07:45:24;12.82;;;3.95;;
67776;SDS011;54576;52.020;5.536;2022-10-26T07:47:53;12.52;;;3.90;;
67776;SDS011;54576;52.020;5.536;2022-10-26T07:50:19;14.13;;;3.95;;
67776;SDS011;54576;52.020;5.536;2022-10-26T07:52:45;14.20;;;4.15;;
67776;SDS011;54576;52.020;5.536;2022-10-26T07:55:11;9.98;;;3.80;;
67776;SDS011;54576;52.020;5.536;2022-10-26T07:57:37;5.50;;;3.45;;
67776;SDS011;54576;52.020;5.536;2022-10-26T08:00:03;9.32;;;3.72;;
67776;SDS011;54576;52.020;5.536;2022-10-26T08:02:30;6.43;;;3.85;;
67776;SDS011;54576;52.020;5.536;2022-10-26T08:04:56;13.68;;;4.05;;
67776;SDS011;54576;52.020;5.536;2022-10-26T08:07:22;11.75;;;3.58;;
67776;SDS011;54576;52.020;5.536;2022-10-26T08:09:49;11.43;;;3.35;;
67776;SDS011;54576;52.020;5.536;2022-10-26T08:12:15;79.65;;;5.35;;
67776;SDS011;54576;52.020;5.536;2022-10-26T08:14:41;12.25;;;3.60;;
67776;SDS011;54576;52.020;5.536;2022-10-26T08:17:21;8.85;;;3.35;;
67776;SDS011;54576;52.020;5.536;2022-10-26T08:19:47;13.30;;;3.10;;
67776;SDS011;54576;52.020;5.536;2022-10-26T08:22:13;9.75;;;3.13;;
67776;SDS011;54576;52.020;5.536;2022-10-26T08:24:39;12.60;;;3.38;;
67776;SDS011;54576;52.020;5.536;2022-10-26T08:27:05;12.13;;;3.88;;
67776;SDS011;54576;52.020;5.536;2022-10-26T08:29:30;10.95;;;3.97;;
67776;SDS011;54576;52.020;5.536;2022-10-26T08:31:56;13.48;;;4.55;;
67776;SDS011;54576;52.020;5.536;2022-10-26T08:34:21;15.30;;;3.20;;
67776;SDS011;54576;52.020;5.536;2022-10-26T08:36:47;7.57;;;2.63;;
67776;SDS011;54576;52.020;5.536;2022-10-26T08:39:14;18.00;;;2.78;;
67776;SDS011;54576;52.020;5.536;2022-10-26T08:41:41;20.77;;;3.28;;
67776;SDS011;54576;52.020;5.536;2022-10-26T08:46:45;10.65;;;2.75;;
67776;SDS011;54576;52.020;5.536;2022-10-26T08:49:19;9.48;;;2.50;;
67776;SDS011;54576;52.020;5.536;2022-10-26T08:51:48;7.80;;;2.33;;
67776;SDS011;54576;52.020;5.536;2022-10-26T08:54:18;8.35;;;2.60;;
67776;SDS011;54576;52.020;5.536;2022-10-26T08:56:57;9.18;;;3.28;;
67776;SDS011;54576;52.020;5.536;2022-10-26T08:59:28;5.88;;;2.53;;
67776;SDS011;54576;52.020;5.536;2022-10-26T09:01:55;14.90;;;3.50;;
67776;SDS011;54576;52.020;5.536;2022-10-26T09:04:21;7.35;;;3.00;;
67776;SDS011;54576;52.020;5.536;2022-10-26T09:09:45;7.75;;;3.30;;
67776;SDS011;54576;52.020;5.536;2022-10-26T09:17:55;10.15;;;3.42;;
67776;SDS011;54576;52.020;5.536;2022-10-26T09:26:08;15.02;;;3.85;;
67776;SDS011;54576;52.020;5.536;2022-10-26T09:28:37;14.73;;;2.70;;
67776;SDS011;54576;52.020;5.536;2022-10-26T09:31:05;7.85;;;3.10;;
67776;SDS011;54576;52.020;5.536;2022-10-26T09:33:38;10.82;;;2.40;;
67776;SDS011;54576;52.020;5.536;2022-10-26T09:36:11;7.20;;;2.90;;
67776;SDS011;54576;52.020;5.536;2022-10-26T09:38:48;6.85;;;3.03;;
67776;SDS011;54576;52.020;5.536;2022-10-26T09:44:12;15.63;;;3.08;;
67776;SDS011;54576;52.020;5.536;2022-10-26T09:49:28;6.10;;;2.58;;
67776;SDS011;54576;52.020;5.536;2022-10-26T09:52:05;10.50;;;2.73;;
67776;SDS011;54576;52.020;5.536;2022-10-26T09:54:30;4.85;;;2.90;;
67776;SDS011;54576;52.020;5.536;2022-10-26T09:56:57;11.40;;;2.50;;
67776;SDS011;54576;52.020;5.536;2022-10-26T09:59:26;11.82;;;3.35;;
67776;SDS011;54576;52.020;5.536;2022-10-26T10:01:52;7.93;;;3.13;;
67776;SDS011;54576;52.020;5.536;2022-10-26T10:04:19;9.25;;;2.92;;
67776;SDS011;54576;52.020;5.536;2022-10-26T10:06:50;15.55;;;3.97;;
67776;SDS011;54576;52.020;5.536;2022-10-26T10:09:37;11.70;;;3.13;;
67776;SDS011;54576;52.020;5.536;2022-10-26T10:12:03;9.50;;;2.50;;
67776;SDS011;54576;52.020;5.536;2022-10-26T10:14:32;4.68;;;2.28;;
67776;SDS011;54576;52.020;5.536;2022-10-26T10:17:04;7.70;;;2.80;;
67776;SDS011;54576;52.020;5.536;2022-10-26T10:19:35;11.02;;;2.60;;
67776;SDS011;54576;52.020;5.536;2022-10-26T10:22:16;11.80;;;3.10;;
67776;SDS011;54576;52.020;5.536;2022-10-26T10:24:57;4.28;;;2.40;;
67776;SDS011;54576;52.020;5.536;2022-10-26T10:27:24;15.88;;;3.00;;
67776;SDS011;54576;52.020;5.536;2022-10-26T10:29:52;10.23;;;3.10;;
67776;SDS011;54576;52.020;5.536;2022-10-26T10:32:29;13.25;;;3.00;;
67776;SDS011;54576;52.020;5.536;2022-10-26T10:34:57;11.55;;;3.05;;
67776;SDS011;54576;52.020;5.536;2022-10-26T10:37:31;16.00;;;2.85;;
67776;SDS011;54576;52.020;5.536;2022-10-26T10:42:33;10.60;;;2.90;;
67776;SDS011;54576;52.020;5.536;2022-10-26T10:45:02;18.35;;;2.70;;
67776;SDS011;54576;52.020;5.536;2022-10-26T10:47:30;10.18;;;2.45;;
67776;SDS011;54576;52.020;5.536;2022-10-26T10:50:01;13.50;;;3.13;;
67776;SDS011;54576;52.020;5.536;2022-10-26T10:52:36;11.90;;;2.60;;
67776;SDS011;54576;52.020;5.536;2022-10-26T11:00:25;11.00;;;2.70;;
67776;SDS011;54576;52.020;5.536;2022-10-26T11:14:00;13.80;;;2.90;;
67776;SDS011;54576;52.020;5.536;2022-10-26T11:16:39;7.68;;;2.47;;
67776;SDS011;54576;52.020;5.536;2022-10-26T11:21:56;9.70;;;2.65;;
67776;SDS011;54576;52.020;5.536;2022-10-26T11:24:30;21.60;;;3.72;;
67776;SDS011;54576;52.020;5.536;2022-10-26T11:27:22;6.18;;;2.50;;
67776;SDS011;54576;52.020;5.536;2022-10-26T11:30:21;9.10;;;2.40;;
67776;SDS011;54576;52.020;5.536;2022-10-26T11:36:02;16.02;;;3.03;;
67776;SDS011;54576;52.020;5.536;2022-10-26T11:38:39;7.82;;;2.40;;
67776;SDS011;54576;52.020;5.536;2022-10-26T11:43:49;20.50;;;2.90;;
67776;SDS011;54576;52.020;5.536;2022-10-26T11:46:29;5.28;;;2.78;;
67776;SDS011;54576;52.020;5.536;2022-10-26T11:49:05;8.25;;;2.75;;
67776;SDS011;54576;52.020;5.536;2022-10-26T11:51:46;10.55;;;2.15;;
67776;SDS011;54576;52.020;5.536;2022-10-26T11:54:32;6.57;;;2.17;;
67776;SDS011;54576;52.020;5.536;2022-10-26T11:57:04;6.60;;;2.33;;
67776;SDS011;54576;52.020;5.536;2022-10-26T11:59:32;8.73;;;2.80;;
67776;SDS011;54576;52.020;5.536;2022-10-26T12:04:43;5.35;;;2.33;;
67776;SDS011;54576;52.020;5.536;2022-10-26T12:07:35;6.88;;;2.40;;
67776;SDS011;54576;52.020;5.536;2022-10-26T12:10:05;12.68;;;2.80;;
67776;SDS011;54576;52.020;5.536;2022-10-26T12:15:23;8.93;;;2.80;;
67776;SDS011;54576;52.020;5.536;2022-10-26T12:18:10;9.90;;;2.63;;
67776;SDS011;54576;52.020;5.536;2022-10-26T12:23:26;7.63;;;2.75;;
67776;SDS011;54576;52.020;5.536;2022-10-26T12:26:36;9.70;;;2.72;;
67776;SDS011;54576;52.020;5.536;2022-10-26T12:34:01;8.75;;;2.33;;
67776;SDS011;54576;52.020;5.536;2022-10-26T12:39:32;10.70;;;2.38;;
67776;SDS011;54576;52.020;5.536;2022-10-26T12:44:33;12.23;;;2.85;;
67776;SDS011;54576;52.020;5.536;2022-10-26T12:46:58;9.25;;;2.22;;
67776;SDS011;54576;52.020;5.536;2022-10-26T12:53:09;4.80;;;1.80;;
67776;SDS011;54576;52.020;5.536;2022-10-26T13:00:29;6.75;;;2.28;;
67776;SDS011;54576;52.020;5.536;2022-10-26T13:08:23;8.82;;;2.20;;
67776;SDS011;54576;52.020;5.536;2022-10-26T13:11:03;13.80;;;2.10;;
67776;SDS011;54576;52.020;5.536;2022-10-26T13:13:35;5.20;;;2.05;;
67776;SDS011;54576;52.020;5.536;2022-10-26T13:16:01;5.95;;;2.10;;
67776;SDS011;54576;52.020;5.536;2022-10-26T13:18:27;6.68;;;2.33;;
67776;SDS011;54576;52.020;5.536;2022-10-26T13:23:29;9.88;;;2.15;;
67776;SDS011;54576;52.020;5.536;2022-10-26T13:26:16;8.52;;;2.17;;
67776;SDS011;54576;52.020;5.536;2022-10-26T13:28:44;12.18;;;2.63;;
67776;SDS011;54576;52.020;5.536;2022-10-26T13:33:49;17.17;;;2.83;;
67776;SDS011;54576;52.020;5.536;2022-10-26T13:38:45;11.93;;;3.10;;
67776;SDS011;54576;52.020;5.536;2022-10-26T13:41:21;9.57;;;2.33;;
67776;SDS011;54576;52.020;5.536;2022-10-26T13:43:56;6.05;;;2.35;;
67776;SDS011;54576;52.020;5.536;2022-10-26T13:46:25;15.95;;;2.80;;
67776;SDS011;54576;52.020;5.536;2022-10-26T13:48:53;5.38;;;2.85;;
67776;SDS011;54576;52.020;5.536;2022-10-26T13:51:24;13.65;;;2.97;;
67776;SDS011;54576;52.020;5.536;2022-10-26T13:53:59;9.05;;;3.10;;
67776;SDS011;54576;52.020;5.536;2022-10-26T13:56:34;11.98;;;2.75;;
67776;SDS011;54576;52.020;5.536;2022-10-26T13:59:07;8.68;;;3.38;;
67776;SDS011;54576;52.020;5.536;2022-10-26T14:01:35;10.23;;;2.80;;
67776;SDS011;54576;52.020;5.536;2022-10-26T14:04:16;11.85;;;3.35;;
67776;SDS011;54576;52.020;5.536;2022-10-26T14:06:50;8.40;;;2.88;;
67776;SDS011;54576;52.020;5.536;2022-10-26T14:09:19;8.88;;;2.90;;
67776;SDS011;54576;52.020;5.536;2022-10-26T14:11:47;19.02;;;2.75;;
67776;SDS011;54576;52.020;5.536;2022-10-26T14:14:17;15.65;;;3.13;;
67776;SDS011;54576;52.020;5.536;2022-10-26T14:16:46;7.63;;;3.38;;
67776;SDS011;54576;52.020;5.536;2022-10-26T14:19:15;10.73;;;2.88;;
67776;SDS011;54576;52.020;5.536;2022-10-26T14:21:46;4.90;;;2.35;;
67776;SDS011;54576;52.020;5.536;2022-10-26T14:24:19;7.40;;;2.50;;
67776;SDS011;54576;52.020;5.536;2022-10-26T14:26:46;11.07;;;2.40;;
67776;SDS011;54576;52.020;5.536;2022-10-26T14:29:13;7.80;;;2.63;;
67776;SDS011;54576;52.020;5.536;2022-10-26T14:31:43;11.80;;;2.38;;
67776;SDS011;54576;52.020;5.536;2022-10-26T14:34:10;7.22;;;2.20;;
67776;SDS011;54576;52.020;5.536;2022-10-26T14:39:03;10.52;;;2.08;;
67776;SDS011;54576;52.020;5.536;2022-10-26T14:41:33;10.43;;;2.25;;
67776;SDS011;54576;52.020;5.536;2022-10-26T14:44:00;4.03;;;1.27;;
67776;SDS011;54576;52.020;5.536;2022-10-26T14:46:27;3.85;;;1.67;;
67776;SDS011;54576;52.020;5.536;2022-10-26T14:48:59;13.20;;;2.20;;
67776;SDS011;54576;52.020;5.536;2022-10-26T14:51:27;4.82;;;1.65;;
67776;SDS011;54576;52.020;5.536;2022-10-26T14:53:58;6.47;;;1.67;;
67776;SDS011;54576;52.020;5.536;2022-10-26T14:59:08;9.32;;;2.30;;
67776;SDS011;54576;52.020;5.536;2022-10-26T15:01:46;9.88;;;1.40;;
67776;SDS011;54576;52.020;5.536;2022-10-26T15:04:28;8.45;;;1.73;;
67776;SDS011;54576;52.020;5.536;2022-10-26T15:09:37;6.20;;;1.48;;
67776;SDS011;54576;52.020;5.536;2022-10-26T15:12:06;6.47;;;1.30;;
67776;SDS011;54576;52.020;5.536;2022-10-26T15:14:43;5.43;;;1.30;;
67776;SDS011;54576;52.020;5.536;2022-10-26T15:17:13;7.75;;;1.45;;
67776;SDS011;54576;52.020;5.536;2022-10-26T15:19:45;4.68;;;1.30;;
67776;SDS011;54576;52.020;5.536;2022-10-26T15:22:18;14.48;;;1.70;;
67776;SDS011;54576;52.020;5.536;2022-10-26T15:24:49;7.47;;;1.60;;
67776;SDS011;54576;52.020;5.536;2022-10-26T15:27:17;6.40;;;1.50;;
67776;SDS011;54576;52.020;5.536;2022-10-26T15:35:10;8.70;;;1.60;;
67776;SDS011;54576;52.020;5.536;2022-10-26T15:37:46;8.75;;;1.85;;
67776;SDS011;54576;52.020;5.536;2022-10-26T15:40:12;5.53;;;2.08;;
67776;SDS011;54576;52.020;5.536;2022-10-26T15:42:38;12.82;;;1.80;;
67776;SDS011;54576;52.020;5.536;2022-10-26T15:45:24;5.00;;;1.50;;
67776;SDS011;54576;52.020;5.536;2022-10-26T15:47:53;4.63;;;1.83;;
67776;SDS011;54576;52.020;5.536;2022-10-26T15:50:21;7.85;;;1.95;;
67776;SDS011;54576;52.020;5.536;2022-10-26T15:52:49;8.13;;;1.93;;
67776;SDS011;54576;52.020;5.536;2022-10-26T15:55:18;8.27;;;1.70;;
67776;SDS011;54576;52.020;5.536;2022-10-26T15:57:44;5.88;;;1.80;;
67776;SDS011;54576;52.020;5.536;2022-10-26T16:00:13;6.55;;;1.60;;
67776;SDS011;54576;52.020;5.536;2022-10-26T16:02:41;9.15;;;2.03;;
67776;SDS011;54576;52.020;5.536;2022-10-26T16:05:09;4.35;;;1.77;;
67776;SDS011;54576;52.020;5.536;2022-10-26T16:07:36;9.13;;;1.60;;
67776;SDS011;54576;52.020;5.536;2022-10-26T16:10:04;5.80;;;1.70;;
67776;SDS011;54576;52.020;5.536;2022-10-26T16:12:30;8.73;;;1.70;;
67776;SDS011;54576;52.020;5.536;2022-10-26T16:14:55;12.82;;;1.75;;
67776;SDS011;54576;52.020;5.536;2022-10-26T16:17:21;8.80;;;2.03;;
67776;SDS011;54576;52.020;5.536;2022-10-26T16:19:46;11.38;;;2.25;;
67776;SDS011;54576;52.020;5.536;2022-10-26T16:22:12;4.65;;;1.70;;
67776;SDS011;54576;52.020;5.536;2022-10-26T16:24:38;4.40;;;1.60;;
67776;SDS011;54576;52.020;5.536;2022-10-26T16:27:03;7.43;;;1.70;;
67776;SDS011;54576;52.020;5.536;2022-10-26T16:29:29;8.02;;;1.55;;
67776;SDS011;54576;52.020;5.536;2022-10-26T16:31:55;15.43;;;2.10;;
67776;SDS011;54576;52.020;5.536;2022-10-26T16:34:20;7.93;;;1.90;;
67776;SDS011;54576;52.020;5.536;2022-10-26T16:36:46;6.35;;;1.58;;
67776;SDS011;54576;52.020;5.536;2022-10-26T16:39:11;14.93;;;1.73;;
67776;SDS011;54576;52.020;5.536;2022-10-26T16:41:37;9.13;;;1.92;;
67776;SDS011;54576;52.020;5.536;2022-10-26T16:44:03;9.48;;;2.25;;
67776;SDS011;54576;52.020;5.536;2022-10-26T16:46:28;8.63;;;2.10;;
67776;SDS011;54576;52.020;5.536;2022-10-26T16:48:54;6.65;;;2.10;;
67776;SDS011;54576;52.020;5.536;2022-10-26T16:51:20;13.63;;;2.63;;
67776;SDS011;54576;52.020;5.536;2022-10-26T16:53:48;11.70;;;2.13;;
67776;SDS011;54576;52.020;5.536;2022-10-26T16:56:16;10.32;;;2.75;;
67776;SDS011;54576;52.020;5.536;2022-10-26T16:58:44;5.22;;;1.75;;
67776;SDS011;54576;52.020;5.536;2022-10-26T17:01:10;6.43;;;3.35;;
67776;SDS011;54576;52.020;5.536;2022-10-26T17:03:41;10.00;;;2.88;;
67776;SDS011;54576;52.020;5.536;2022-10-26T17:06:07;10.55;;;3.05;;
67776;SDS011;54576;52.020;5.536;2022-10-26T17:08:33;6.65;;;2.58;;
67776;SDS011;54576;52.020;5.536;2022-10-26T17:11:07;13.32;;;2.75;;